createdAt,value
2018-07-11T00:00:52.000Z,29.6
2018-07-11T00:01:52.000Z,29.7
2018-07-11T00:03:52.000Z,29.8
2018-07-11T00:05:52.000Z,29.8
2018-07-11T00:07:52.000Z,29.6
2018-07-11T00:09:52.000Z,29.6
2018-07-11T00:10:52.000Z,29.6
2018-07-11T00:12:52.000Z,29.6
2018-07-11T00:13:52.000Z,29.6
2018-07-11T00:15:37.000Z,29.7
2018-07-11T00:16:52.000Z,29.7
2018-07-11T00:18:37.000Z,29.7
2018-07-11T00:19:52.000Z,29.6
2018-07-11T00:20:52.000Z,29.6
2018-07-11T00:22:52.000Z,29.7
2018-07-11T00:24:52.000Z,29.6
2018-07-11T00:26:52.000Z,29.5
2018-07-11T00:28:52.000Z,29.5
2018-07-11T00:29:52.000Z,29.5
2018-07-11T00:31:52.000Z,29.5
2018-07-11T00:32:52.000Z,29.6
2018-07-11T00:33:52.000Z,29.6
2018-07-11T00:34:52.000Z,29.7
2018-07-11T00:35:52.000Z,29.8
2018-07-11T00:36:52.000Z,29.9
2018-07-11T00:38:52.000Z,30
2018-07-11T00:39:52.000Z,30
2018-07-11T00:41:52.000Z,30
2018-07-11T00:42:52.000Z,29.9
2018-07-11T00:43:52.000Z,29.9
2018-07-11T00:45:52.000Z,29.9
2018-07-11T00:46:52.000Z,29.9
2018-07-11T00:48:52.000Z,29.9
2018-07-11T00:49:52.000Z,29.9
2018-07-11T00:51:52.000Z,29.9
2018-07-11T00:53:52.000Z,29.8
2018-07-11T00:55:52.000Z,29.7
2018-07-11T00:57:52.000Z,29.6
2018-07-11T00:58:52.000Z,29.5
2018-07-11T01:00:52.000Z,29.6
2018-07-11T01:02:37.000Z,29.6
2018-07-11T01:03:52.000Z,29.6
2018-07-11T01:04:52.000Z,29.6
2018-07-11T01:06:52.000Z,29.7
2018-07-11T01:07:52.000Z,29.7
2018-07-11T01:09:52.000Z,29.7
2018-07-11T01:11:52.000Z,29.6
2018-07-11T01:13:52.000Z,29.6
2018-07-11T01:14:52.000Z,29.6
2018-07-11T01:16:52.000Z,29.6
2018-07-11T01:18:52.000Z,29.5
2018-07-11T01:19:52.000Z,29.6
2018-07-11T01:21:37.000Z,29.6
2018-07-11T01:22:52.000Z,29.6
2018-07-11T01:24:52.000Z,29.6
2018-07-11T01:25:52.000Z,29.6
2018-07-11T01:26:52.000Z,29.7
2018-07-11T01:28:52.000Z,29.7
2018-07-11T01:30:52.000Z,29.6
2018-07-11T01:32:52.000Z,29.6
2018-07-11T01:33:52.000Z,29.6
2018-07-11T01:34:52.000Z,29.6
2018-07-11T01:36:53.000Z,29.7
2018-07-11T01:38:52.000Z,29.6
2018-07-11T01:40:52.000Z,29.5
2018-07-11T01:42:52.000Z,29.5
2018-07-11T01:43:52.000Z,29.5
2018-07-11T01:45:52.000Z,29.5
2018-07-11T01:47:52.000Z,29.5
2018-07-11T01:48:52.000Z,29.5
2018-07-11T01:50:53.000Z,29.6
2018-07-11T01:52:52.000Z,29.5
2018-07-11T01:53:52.000Z,29.5
2018-07-11T01:54:52.000Z,29.5
2018-07-11T01:56:52.000Z,29.5
2018-07-11T01:58:52.000Z,29.4
2018-07-11T02:00:52.000Z,29.4
2018-07-11T02:01:52.000Z,29.3
2018-07-11T02:03:52.000Z,29.4
2018-07-11T02:05:52.000Z,29.4
2018-07-11T02:07:52.000Z,29.4
2018-07-11T02:08:52.000Z,29.4
2018-07-11T02:10:52.000Z,29.5
2018-07-11T02:11:53.000Z,29.5
2018-07-11T02:12:53.000Z,29.6
2018-07-11T02:13:53.000Z,29.7
2018-07-11T02:14:53.000Z,29.7
2018-07-11T02:15:53.000Z,29.8
2018-07-11T02:16:53.000Z,29.8
2018-07-11T02:18:37.000Z,29.8
2018-07-11T02:19:53.000Z,29.8
2018-07-11T02:20:53.000Z,29.8
2018-07-11T02:22:52.000Z,29.8
2018-07-11T02:23:53.000Z,29.8
2018-07-11T02:25:52.000Z,29.8
2018-07-11T02:26:52.000Z,29.8
2018-07-11T02:28:52.000Z,29.8
2018-07-11T02:30:53.000Z,29.7
2018-07-11T02:32:53.000Z,29.7
2018-07-11T02:34:37.000Z,29.6
2018-07-11T02:35:53.000Z,29.6
2018-07-11T02:37:52.000Z,29.6
2018-07-11T02:38:53.000Z,29.6
2018-07-11T02:40:52.000Z,29.6
2018-07-11T02:41:52.000Z,29.7
2018-07-11T02:43:52.000Z,29.7
2018-07-11T02:44:52.000Z,29.7
2018-07-11T02:46:52.000Z,29.7
2018-07-11T02:47:52.000Z,29.7
2018-07-11T02:49:52.000Z,29.7
2018-07-11T02:51:52.000Z,29.7
2018-07-11T02:53:52.000Z,29.6
2018-07-11T02:55:52.000Z,29.6
2018-07-11T02:57:52.000Z,29.6
2018-07-11T02:59:52.000Z,29.6
2018-07-11T03:00:52.000Z,29.6
2018-07-11T03:02:52.000Z,29.6
2018-07-11T03:03:52.000Z,29.6
2018-07-11T03:05:52.000Z,29.6
2018-07-11T03:06:52.000Z,29.6
2018-07-11T03:08:37.000Z,29.7
2018-07-11T03:09:52.000Z,29.7
2018-07-11T03:10:52.000Z,29.7
2018-07-11T03:11:52.000Z,29.7
2018-07-11T03:13:52.000Z,29.8
2018-07-11T03:15:52.000Z,29.7
2018-07-11T03:20:53.000Z,29.1
2018-07-11T03:22:38.000Z,29.1
2018-07-11T03:23:38.000Z,29.1
2018-07-11T03:25:38.000Z,29.3
2018-07-11T03:27:38.000Z,29.3
2018-07-11T03:29:23.000Z,29.3
2018-07-11T03:30:38.000Z,29.3
2018-07-11T03:31:38.000Z,29.4
2018-07-11T03:32:38.000Z,29.5
2018-07-11T03:34:38.000Z,29.5
2018-07-11T03:36:38.000Z,29.5
2018-07-11T03:37:38.000Z,29.5
2018-07-11T03:39:38.000Z,29.6
2018-07-11T03:40:38.000Z,29.6
2018-07-11T03:41:38.000Z,29.6
2018-07-11T03:42:38.000Z,29.7
2018-07-11T03:43:38.000Z,29.8
2018-07-11T03:45:38.000Z,29.8
2018-07-11T03:46:38.000Z,29.9
2018-07-11T03:48:38.000Z,29.8
2018-07-11T03:50:38.000Z,29.8
2018-07-11T03:51:38.000Z,29.7
2018-07-11T03:53:38.000Z,29.7
2018-07-11T03:54:38.000Z,29.8
2018-07-11T03:56:38.000Z,29.8
2018-07-11T03:58:38.000Z,29.8
2018-07-11T04:00:38.000Z,29.7
2018-07-11T04:01:38.000Z,29.7
2018-07-11T04:02:38.000Z,29.8
2018-07-11T04:04:38.000Z,29.8
2018-07-11T04:05:38.000Z,29.8
2018-07-11T04:06:38.000Z,29.8
2018-07-11T04:08:38.000Z,29.8
2018-07-11T04:10:38.000Z,29.8
2018-07-11T04:12:38.000Z,29.7
2018-07-11T04:13:38.000Z,29.7
2018-07-11T04:14:38.000Z,29.8
2018-07-11T04:16:38.000Z,29.9
2018-07-11T04:18:38.000Z,29.8
2018-07-11T04:19:38.000Z,29.8
2018-07-11T04:21:38.000Z,29.9
2018-07-11T04:22:38.000Z,29.9
2018-07-11T04:24:38.000Z,29.9
2018-07-11T04:25:38.000Z,29.9
2018-07-11T04:26:38.000Z,30
2018-07-11T04:28:38.000Z,30
2018-07-11T04:30:38.000Z,30
2018-07-11T04:31:38.000Z,30
2018-07-11T04:33:38.000Z,29.6
2018-07-11T04:34:38.000Z,29.3
2018-07-11T04:35:38.000Z,29.1
2018-07-11T04:37:38.000Z,28.7
2018-07-11T04:38:38.000Z,28.5
2018-07-11T04:39:38.000Z,28.4
2018-07-11T04:41:38.000Z,28.2
2018-07-11T04:43:38.000Z,27.9
2018-07-11T04:44:38.000Z,27.9
2018-07-11T04:45:38.000Z,27.8
2018-07-11T04:47:23.000Z,27.6
2018-07-11T04:48:38.000Z,27.4
2018-07-11T04:49:38.000Z,27.3
2018-07-11T04:51:38.000Z,27.2
2018-07-11T04:52:38.000Z,27.1
2018-07-11T04:53:38.000Z,27.1
2018-07-11T04:55:38.000Z,27
2018-07-11T04:56:38.000Z,26.9
2018-07-11T04:58:38.000Z,26.8
2018-07-11T04:59:38.000Z,26.8
2018-07-11T05:00:38.000Z,26.8
2018-07-11T05:01:38.000Z,26.8
2018-07-11T05:02:38.000Z,26.8
2018-07-11T05:04:38.000Z,26.6
2018-07-11T05:05:38.000Z,26.6
2018-07-11T05:07:38.000Z,26.5
2018-07-11T05:08:38.000Z,26.5
2018-07-11T05:09:38.000Z,26.5
2018-07-11T05:10:38.000Z,26.6
2018-07-11T05:12:38.000Z,26.6
2018-07-11T05:13:38.000Z,26.6
2018-07-11T05:15:38.000Z,26.6
2018-07-11T05:17:38.000Z,26.6
2018-07-11T05:18:38.000Z,26.6
2018-07-11T05:20:38.000Z,26.7
2018-07-11T05:22:38.000Z,26.7
2018-07-11T05:24:38.000Z,26.7
2018-07-11T05:26:38.000Z,26.8
2018-07-11T05:28:38.000Z,26.7
2018-07-11T05:29:38.000Z,26.7
2018-07-11T05:31:23.000Z,26.6
2018-07-11T05:32:38.000Z,26.6
2018-07-11T05:33:38.000Z,26.6
2018-07-11T05:34:38.000Z,26.6
2018-07-11T05:35:38.000Z,26.7
2018-07-11T05:39:41.000Z,27
2018-07-11T05:41:25.000Z,27.1
2018-07-11T05:42:40.000Z,27.1
2018-07-11T05:43:40.000Z,27.1
2018-07-11T05:44:40.000Z,27.1
2018-07-11T05:46:40.000Z,27.2
2018-07-11T05:47:40.000Z,27.3
2018-07-11T05:49:40.000Z,27.2
2018-07-11T05:50:41.000Z,27.3
2018-07-11T05:52:41.000Z,27.2
2018-07-11T05:54:41.000Z,27.2
2018-07-11T05:55:41.000Z,27.2
2018-07-11T05:56:41.000Z,27.2
2018-07-11T05:58:26.000Z,27.2
2018-07-11T05:59:41.000Z,27.1
2018-07-11T06:00:41.000Z,27.1
2018-07-11T06:02:41.000Z,27.2
2018-07-11T06:04:41.000Z,27.3
2018-07-11T06:05:41.000Z,27.3
2018-07-11T06:07:41.000Z,27.5
2018-07-11T06:09:41.000Z,27.6
2018-07-11T06:10:41.000Z,27.7
2018-07-11T06:12:41.000Z,27.8
2018-07-11T06:13:41.000Z,27.8
2018-07-11T06:14:41.000Z,27.8
2018-07-11T06:16:41.000Z,27.7
2018-07-11T06:18:26.000Z,27.6
2018-07-11T06:19:41.000Z,27.5
2018-07-11T06:20:41.000Z,27.5
2018-07-11T06:22:41.000Z,27.4
2018-07-11T06:24:41.000Z,27.3
2018-07-11T06:26:41.000Z,27.1
2018-07-11T06:27:41.000Z,27.1
2018-07-11T06:29:41.000Z,27.2
2018-07-11T06:31:26.000Z,27.2
2018-07-11T06:32:41.000Z,27.1
2018-07-11T06:34:41.000Z,27
2018-07-11T06:36:41.000Z,27
2018-07-11T06:37:41.000Z,27
2018-07-11T06:39:26.000Z,27.1
2018-07-11T06:40:41.000Z,27.1
2018-07-11T06:42:26.000Z,27.1
2018-07-11T06:43:41.000Z,27
2018-07-11T06:45:41.000Z,27.1
2018-07-11T06:47:41.000Z,27.1
2018-07-11T06:48:41.000Z,27.2
2018-07-11T06:49:41.000Z,27.2
2018-07-11T06:51:41.000Z,27.4
2018-07-11T06:53:41.000Z,27.6
2018-07-11T06:54:41.000Z,27.8
2018-07-11T06:56:41.000Z,28.1
2018-07-11T06:57:41.000Z,28.3
2018-07-11T06:59:41.000Z,28.5
2018-07-11T07:01:41.000Z,28.8
2018-07-11T07:02:41.000Z,28.9
2018-07-11T07:04:41.000Z,29
2018-07-11T07:05:41.000Z,29
2018-07-11T07:06:41.000Z,29
2018-07-11T07:08:41.000Z,29.3
2018-07-11T07:10:41.000Z,29.5
2018-07-11T07:11:41.000Z,29.6
2018-07-11T07:13:25.000Z,29.7
2018-07-11T07:14:41.000Z,29.7
2018-07-11T07:16:41.000Z,29.7
2018-07-11T07:17:41.000Z,29.7
2018-07-11T07:19:41.000Z,29.8
2018-07-11T07:21:41.000Z,29.8
2018-07-11T07:22:41.000Z,29.8
2018-07-11T07:24:41.000Z,30
2018-07-11T07:26:25.000Z,30
2018-07-11T07:27:41.000Z,30
2018-07-11T07:29:41.000Z,30
2018-07-11T07:30:41.000Z,30
2018-07-11T07:32:41.000Z,30.1
2018-07-11T07:33:41.000Z,30.2
2018-07-11T07:35:41.000Z,30.4
2018-07-11T07:36:41.000Z,30.5
2018-07-11T07:38:41.000Z,30.6
2018-07-11T07:40:41.000Z,30.8
2018-07-11T07:41:41.000Z,30.8
2018-07-11T07:42:41.000Z,30.9
2018-07-11T07:44:41.000Z,30.9
2018-07-11T07:45:41.000Z,30.9
2018-07-11T07:47:41.000Z,30.9
2018-07-11T07:49:41.000Z,30.9
2018-07-11T07:51:41.000Z,30.8
2018-07-11T07:52:41.000Z,30.8
2018-07-11T07:54:41.000Z,30.8
2018-07-11T07:55:41.000Z,30.8
2018-07-11T07:56:41.000Z,30.9
2018-07-11T07:58:41.000Z,31
2018-07-11T07:59:41.000Z,31
2018-07-11T08:01:41.000Z,31.1
2018-07-11T08:02:41.000Z,31.1
2018-07-11T08:04:26.000Z,31.1
2018-07-11T08:05:41.000Z,31
2018-07-11T08:07:26.000Z,30.9
2018-07-11T08:08:41.000Z,30.9
2018-07-11T08:10:41.000Z,30.9
2018-07-11T08:11:41.000Z,30.9
2018-07-11T08:13:41.000Z,30.9
2018-07-11T08:14:41.000Z,30.9
2018-07-11T08:16:41.000Z,31
2018-07-11T08:17:41.000Z,31
2018-07-11T08:18:41.000Z,31.1
2018-07-11T08:20:41.000Z,31.2
2018-07-11T08:21:41.000Z,31.2
2018-07-11T08:22:41.000Z,31.2
2018-07-11T08:24:41.000Z,31.2
2018-07-11T08:26:41.000Z,31
2018-07-11T08:27:41.000Z,31
2018-07-11T08:29:41.000Z,30.9
2018-07-11T08:30:41.000Z,30.8
2018-07-11T08:32:41.000Z,30.8
2018-07-11T08:34:41.000Z,30.9
2018-07-11T08:36:41.000Z,30.9
2018-07-11T08:38:41.000Z,30.9
2018-07-11T08:39:41.000Z,31
2018-07-11T08:41:41.000Z,31.1
2018-07-11T08:42:41.000Z,31.1
2018-07-11T08:44:26.000Z,31.3
2018-07-11T08:45:41.000Z,31.3
2018-07-11T08:47:41.000Z,31.3
2018-07-11T08:49:41.000Z,31.3
2018-07-11T08:51:41.000Z,31.2
2018-07-11T08:52:41.000Z,31.3
2018-07-11T08:54:41.000Z,31.8
2018-07-11T08:56:26.000Z,32
2018-07-11T08:57:41.000Z,32
2018-07-11T08:59:41.000Z,31.9
2018-07-11T09:01:41.000Z,31.8
2018-07-11T09:02:41.000Z,31.8
2018-07-11T09:04:41.000Z,31.8
2018-07-11T09:06:41.000Z,31.8
2018-07-11T09:07:41.000Z,31.8
2018-07-11T09:08:41.000Z,31.9
2018-07-11T09:10:41.000Z,31.9
2018-07-11T09:11:41.000Z,32
2018-07-11T09:13:41.000Z,32.1
2018-07-11T09:15:41.000Z,32.2
2018-07-11T09:17:41.000Z,32.2
2018-07-11T09:19:41.000Z,32.3
2018-07-11T09:20:41.000Z,32.4
2018-07-11T09:21:41.000Z,32.5
2018-07-11T09:23:41.000Z,32.5
2018-07-11T09:25:41.000Z,32.5
2018-07-11T09:27:41.000Z,32.5
2018-07-11T09:28:41.000Z,32.7
2018-07-11T09:30:41.000Z,33
2018-07-11T09:32:41.000Z,33
2018-07-11T09:33:41.000Z,33
2018-07-11T09:34:41.000Z,33.5
2018-07-11T09:36:41.000Z,36.6
2018-07-11T09:37:41.000Z,37.8
2018-07-11T09:39:41.000Z,38.3
2018-07-11T09:40:41.000Z,38.3
2018-07-11T09:42:41.000Z,38
2018-07-11T09:43:41.000Z,37.7
2018-07-11T09:45:26.000Z,37.3
2018-07-11T09:46:41.000Z,37
2018-07-11T09:48:41.000Z,36.6
2018-07-11T09:49:41.000Z,36.4
2018-07-11T09:51:26.000Z,36.1
2018-07-11T09:52:41.000Z,35.8
2018-07-11T09:53:41.000Z,35.5
2018-07-11T09:55:41.000Z,34.8
2018-07-11T09:56:41.000Z,34.5
2018-07-11T09:58:41.000Z,34
2018-07-11T09:59:41.000Z,33.7
2018-07-11T10:01:41.000Z,33.2
2018-07-11T10:03:41.000Z,32.8
2018-07-11T10:05:41.000Z,32.4
2018-07-11T10:06:41.000Z,32.2
2018-07-11T10:08:41.000Z,32.1
2018-07-11T10:10:41.000Z,31.9
2018-07-11T10:11:41.000Z,31.9
2018-07-11T10:13:41.000Z,31.8
2018-07-11T10:15:41.000Z,31.6
2018-07-11T10:16:41.000Z,31.6
2018-07-11T10:18:41.000Z,31.4
2018-07-11T10:20:41.000Z,31.3
2018-07-11T10:21:41.000Z,31.3
2018-07-11T10:23:26.000Z,31.4
2018-07-11T10:24:41.000Z,31.3
2018-07-11T10:26:41.000Z,31.3
2018-07-11T10:28:41.000Z,31.2
2018-07-11T10:30:41.000Z,31.1
2018-07-11T10:31:41.000Z,31
2018-07-11T10:33:41.000Z,31
2018-07-11T10:35:41.000Z,31.1
2018-07-11T10:37:41.000Z,31.1
2018-07-11T10:39:41.000Z,31
2018-07-11T10:41:41.000Z,30.9
2018-07-11T10:42:41.000Z,30.9
2018-07-11T10:44:26.000Z,30.9
2018-07-11T10:45:41.000Z,30.8
2018-07-11T10:46:41.000Z,30.8
2018-07-11T10:48:41.000Z,30.7
2018-07-11T10:49:41.000Z,30.6
2018-07-11T10:51:41.000Z,30.5
2018-07-11T10:52:41.000Z,30.4
2018-07-11T10:53:41.000Z,30.4
2018-07-11T10:55:41.000Z,30.4
2018-07-11T10:56:41.000Z,30.3
2018-07-11T10:57:41.000Z,30.3
2018-07-11T10:59:41.000Z,30.2
2018-07-11T11:00:41.000Z,30.2
2018-07-11T11:02:41.000Z,30.2
2018-07-11T11:03:41.000Z,30.1
2018-07-11T11:07:41.000Z,29.7
2018-07-11T11:09:27.000Z,29.6
2018-07-11T11:11:27.000Z,29.6
2018-07-11T11:12:27.000Z,29.6
2018-07-11T11:14:27.000Z,29.8
2018-07-11T11:15:27.000Z,29.9
2018-07-11T11:17:27.000Z,30.2
2018-07-11T11:18:27.000Z,30.3
2018-07-11T11:19:27.000Z,30.5
2018-07-11T11:20:27.000Z,30.6
2018-07-11T11:22:27.000Z,30.9
2018-07-11T11:24:12.000Z,31.1
2018-07-11T11:25:27.000Z,31.2
2018-07-11T11:26:27.000Z,31.3
2018-07-11T11:27:27.000Z,31.5
2018-07-11T11:29:27.000Z,31.8
2018-07-11T11:30:27.000Z,31.9
2018-07-11T11:32:27.000Z,31.9
2018-07-11T11:34:27.000Z,31.8
2018-07-11T11:36:27.000Z,31.7
2018-07-11T11:37:27.000Z,31.6
2018-07-11T11:39:27.000Z,31.5
2018-07-11T11:40:27.000Z,31.4
2018-07-11T11:42:27.000Z,31.3
2018-07-11T11:43:27.000Z,31.3
2018-07-11T11:45:27.000Z,31.1
2018-07-11T11:47:27.000Z,30.9
2018-07-11T11:48:27.000Z,30.8
2018-07-11T11:50:27.000Z,30.8
2018-07-11T11:51:27.000Z,30.7
2018-07-11T11:52:27.000Z,30.8
2018-07-11T11:53:27.000Z,30.8
2018-07-11T11:55:27.000Z,30.8
2018-07-11T11:56:27.000Z,30.7
2018-07-11T11:58:12.000Z,30.8
2018-07-11T11:59:27.000Z,30.7
2018-07-11T12:00:27.000Z,30.6
2018-07-11T12:01:27.000Z,30.6
2018-07-11T12:03:27.000Z,30.5
2018-07-11T12:05:12.000Z,30.4
2018-07-11T12:06:27.000Z,30.4
2018-07-11T12:08:27.000Z,30.3
2018-07-11T12:09:27.000Z,30.3
2018-07-11T12:11:12.000Z,30.2
2018-07-11T12:12:28.000Z,30.1
2018-07-11T12:13:28.000Z,30.1
2018-07-11T12:15:28.000Z,30
2018-07-11T12:17:28.000Z,29.8
2018-07-11T12:19:28.000Z,29.8
2018-07-11T12:20:28.000Z,29.8
2018-07-11T12:21:28.000Z,29.9
2018-07-11T12:23:28.000Z,29.9
2018-07-11T12:25:28.000Z,29.8
2018-07-11T12:27:28.000Z,29.7
2018-07-11T12:28:28.000Z,29.8
2018-07-11T12:30:28.000Z,29.8
2018-07-11T12:31:28.000Z,29.9
2018-07-11T12:33:28.000Z,30
2018-07-11T12:35:28.000Z,29.9
2018-07-11T12:37:28.000Z,29.8
2018-07-11T12:38:28.000Z,29.9
2018-07-11T12:40:28.000Z,30
2018-07-11T12:41:28.000Z,30.1
2018-07-11T12:43:28.000Z,30.1
2018-07-11T12:44:28.000Z,30.2
2018-07-11T12:46:28.000Z,30.2
2018-07-11T12:47:28.000Z,30.2
2018-07-11T12:49:28.000Z,30.2
2018-07-11T12:50:28.000Z,30.2
2018-07-11T12:52:28.000Z,30.2
2018-07-11T12:53:28.000Z,30.1
2018-07-11T12:55:28.000Z,30.1
2018-07-11T12:56:28.000Z,30
2018-07-11T12:57:28.000Z,29.9
2018-07-11T12:59:28.000Z,29.6
2018-07-11T13:00:28.000Z,29.5
2018-07-11T13:02:13.000Z,29.4
2018-07-11T13:03:28.000Z,29.2
2018-07-11T13:04:28.000Z,29.2
2018-07-11T13:05:28.000Z,29.2
2018-07-11T13:06:28.000Z,29.2
2018-07-11T13:08:28.000Z,29.1
2018-07-11T13:10:28.000Z,29
2018-07-11T13:12:28.000Z,28.9
2018-07-11T13:14:28.000Z,28.8
2018-07-11T13:16:27.000Z,28.7
2018-07-11T13:17:27.000Z,28.6
2018-07-11T13:18:27.000Z,28.7
2018-07-11T13:19:27.000Z,28.7
2018-07-11T13:21:27.000Z,28.8
2018-07-11T13:23:27.000Z,28.6
2018-07-11T13:25:27.000Z,28.6
2018-07-11T13:26:27.000Z,28.5
2018-07-11T13:28:27.000Z,28.4
2018-07-11T13:29:27.000Z,28.4
2018-07-11T13:31:27.000Z,28.2
2018-07-11T13:32:27.000Z,28.1
2018-07-11T13:33:27.000Z,28
2018-07-11T13:34:27.000Z,28
2018-07-11T13:36:27.000Z,28
2018-07-11T13:38:27.000Z,27.8
2018-07-11T13:39:27.000Z,27.8
2018-07-11T13:41:27.000Z,27.8
2018-07-11T13:42:27.000Z,27.8
2018-07-11T13:43:27.000Z,27.8
2018-07-11T13:45:27.000Z,27.7
2018-07-11T13:47:27.000Z,27.6
2018-07-11T13:49:27.000Z,27.5
2018-07-11T13:50:27.000Z,27.5
2018-07-11T13:52:27.000Z,27.5
2018-07-11T13:53:27.000Z,27.5
2018-07-11T13:55:27.000Z,27.5
2018-07-11T13:57:27.000Z,27.4
2018-07-11T13:59:27.000Z,27.4
2018-07-11T14:01:27.000Z,27.3
2018-07-11T14:03:27.000Z,27.4
2018-07-11T14:04:27.000Z,27.5
2018-07-11T14:05:27.000Z,27.5
2018-07-11T14:06:27.000Z,27.6
2018-07-11T14:08:27.000Z,27.8
2018-07-11T14:09:27.000Z,27.8
2018-07-11T14:11:27.000Z,27.8
2018-07-11T14:13:27.000Z,27.7
2018-07-11T14:14:27.000Z,27.7
2018-07-11T14:15:27.000Z,27.7
2018-07-11T14:16:27.000Z,27.7
2018-07-11T14:18:27.000Z,27.8
2018-07-11T14:19:27.000Z,27.8
2018-07-11T14:21:27.000Z,27.9
2018-07-11T14:22:27.000Z,28
2018-07-11T14:24:27.000Z,28
2018-07-11T14:26:27.000Z,28
2018-07-11T14:27:27.000Z,28
2018-07-11T14:29:27.000Z,28.1
2018-07-11T14:31:12.000Z,28.1
2018-07-11T14:32:27.000Z,28
2018-07-11T14:33:27.000Z,28
2018-07-11T14:35:12.000Z,28.1
2018-07-11T14:36:27.000Z,28.1
2018-07-11T14:38:27.000Z,28.1
2018-07-11T14:39:27.000Z,28.1
2018-07-11T14:40:27.000Z,28.2
2018-07-11T14:42:27.000Z,28.5
2018-07-11T14:44:27.000Z,28.6
2018-07-11T14:46:27.000Z,28.7
2018-07-11T14:47:27.000Z,28.8
2018-07-11T14:49:12.000Z,29
2018-07-11T14:50:27.000Z,29.1
2018-07-11T14:51:27.000Z,29.2
2018-07-11T14:53:27.000Z,29.3
2018-07-11T14:55:12.000Z,29.4
2018-07-11T14:56:27.000Z,29.3
2018-07-11T14:57:27.000Z,29.3
2018-07-11T14:58:27.000Z,29.4
2018-07-11T15:00:27.000Z,29.5
2018-07-11T15:01:27.000Z,29.5
2018-07-11T15:03:27.000Z,29.5
2018-07-11T15:05:27.000Z,29.5
2018-07-11T15:07:27.000Z,29.4
2018-07-11T15:08:27.000Z,29.5
2018-07-11T15:09:27.000Z,29.5
2018-07-11T15:11:12.000Z,29.6
2018-07-11T15:12:27.000Z,29.6
2018-07-11T15:14:27.000Z,29.6
2018-07-11T15:15:27.000Z,29.5
2018-07-11T15:17:27.000Z,29.6
2018-07-11T15:19:27.000Z,29.5
2018-07-11T15:20:27.000Z,29.5
2018-07-11T15:22:27.000Z,29.6
2018-07-11T15:23:28.000Z,29.6
2018-07-11T15:25:28.000Z,29.6
2018-07-11T15:27:28.000Z,29.6
2018-07-11T15:28:28.000Z,29.7
2018-07-11T15:29:28.000Z,29.7
2018-07-11T15:31:28.000Z,29.8
2018-07-11T15:33:28.000Z,29.8
2018-07-11T15:34:28.000Z,29.9
2018-07-11T15:36:28.000Z,29.9
2018-07-11T15:37:28.000Z,29.9
2018-07-11T15:39:28.000Z,29.9
2018-07-11T15:40:28.000Z,29.9
2018-07-11T15:42:28.000Z,29.9
2018-07-11T15:44:28.000Z,29.8
2018-07-11T15:46:28.000Z,29.7
2018-07-11T15:48:28.000Z,29.6
2018-07-11T15:49:28.000Z,29.7
2018-07-11T15:51:28.000Z,29.7
2018-07-11T15:53:28.000Z,29.8
2018-07-11T15:55:13.000Z,29.8
2018-07-11T15:56:28.000Z,29.7
2018-07-11T15:58:28.000Z,29.8
2018-07-11T16:00:28.000Z,29.8
2018-07-11T16:01:28.000Z,29.8
2018-07-11T16:02:28.000Z,29.8
2018-07-11T16:03:28.000Z,29.9
2018-07-11T16:04:28.000Z,29.9
2018-07-11T16:06:28.000Z,30
2018-07-11T16:08:28.000Z,29.9
2018-07-11T16:10:28.000Z,29.9
2018-07-11T16:11:28.000Z,29.9
2018-07-11T16:13:28.000Z,29.9
2018-07-11T16:14:28.000Z,30
2018-07-11T16:16:28.000Z,30
2018-07-11T16:18:13.000Z,30.1
2018-07-11T16:19:28.000Z,30
2018-07-11T16:21:28.000Z,30
2018-07-11T16:22:28.000Z,29.9
2018-07-11T16:23:28.000Z,30
2018-07-11T16:24:28.000Z,30
2018-07-11T16:26:28.000Z,30.1
2018-07-11T16:27:27.000Z,30.1
2018-07-11T16:29:27.000Z,30.2
2018-07-11T16:31:27.000Z,30.2
2018-07-11T16:32:27.000Z,30.2
2018-07-11T16:34:27.000Z,30.2
2018-07-11T16:36:27.000Z,30.2
2018-07-11T16:37:27.000Z,30.1
2018-07-11T16:38:27.000Z,30.2
2018-07-11T16:40:27.000Z,30.2
2018-07-11T16:41:27.000Z,30.2
2018-07-11T16:42:27.000Z,30.2
2018-07-11T16:43:27.000Z,30.3
2018-07-11T16:44:27.000Z,30.3
2018-07-11T16:46:27.000Z,30.3
2018-07-11T16:48:27.000Z,30.3
2018-07-11T16:50:27.000Z,30.2
2018-07-11T16:52:27.000Z,30.2
2018-07-11T16:54:27.000Z,30.2
2018-07-11T16:56:27.000Z,30.2
2018-07-11T16:58:27.000Z,30.1
2018-07-11T16:59:27.000Z,30.2
2018-07-11T17:00:27.000Z,30.3
2018-07-11T17:02:27.000Z,30.4
2018-07-11T17:04:27.000Z,30.3
2018-07-11T17:06:27.000Z,30.3
2018-07-11T17:07:27.000Z,30.3
2018-07-11T17:09:27.000Z,30.3
2018-07-11T17:10:27.000Z,30.3
2018-07-11T17:12:27.000Z,30.4
2018-07-11T17:13:27.000Z,30.4
2018-07-11T17:14:27.000Z,30.5
2018-07-11T17:16:27.000Z,30.6
2018-07-11T17:18:27.000Z,30.5
2018-07-11T17:19:27.000Z,30.5
2018-07-11T17:20:27.000Z,30.6
2018-07-11T17:22:27.000Z,30.6
2018-07-11T17:24:27.000Z,30.5
2018-07-11T17:25:27.000Z,30.5
2018-07-11T17:27:27.000Z,30.5
2018-07-11T17:28:27.000Z,30.5
2018-07-11T17:29:27.000Z,30.5
2018-07-11T17:31:12.000Z,30.5
2018-07-11T17:32:27.000Z,30.5
2018-07-11T17:34:27.000Z,30.5
2018-07-11T17:35:27.000Z,30.4
2018-07-11T17:37:27.000Z,30.5
2018-07-11T17:39:27.000Z,30.4
2018-07-11T17:40:27.000Z,30.4
2018-07-11T17:41:27.000Z,30.4
2018-07-11T17:43:27.000Z,30.4
2018-07-11T17:45:27.000Z,30.3
2018-07-11T17:46:27.000Z,30.3
2018-07-11T17:48:27.000Z,30.3
2018-07-11T17:49:27.000Z,30.3
2018-07-11T17:51:12.000Z,30.4
2018-07-11T17:52:27.000Z,30.3
2018-07-11T17:54:27.000Z,30.3
2018-07-11T17:55:27.000Z,30.3
2018-07-11T17:57:27.000Z,30.4
2018-07-11T17:58:27.000Z,30.4
2018-07-11T17:59:27.000Z,30.4
2018-07-11T18:01:27.000Z,30.4
2018-07-11T18:03:27.000Z,30.3
2018-07-11T18:04:27.000Z,30.3
2018-07-11T18:05:27.000Z,30.3
2018-07-11T18:07:27.000Z,30.4
2018-07-11T18:08:27.000Z,30.4
2018-07-11T18:09:27.000Z,30.4
2018-07-11T18:10:27.000Z,30.5
2018-07-11T18:12:27.000Z,30.5
2018-07-11T18:14:27.000Z,30.5
2018-07-11T18:15:27.000Z,30.4
2018-07-11T18:17:27.000Z,30.4
2018-07-11T18:18:27.000Z,30.4
2018-07-11T18:20:27.000Z,30.3
2018-07-11T18:22:27.000Z,30.2
2018-07-11T18:23:27.000Z,30.2
2018-07-11T18:24:27.000Z,30.2
2018-07-11T18:26:27.000Z,30.2
2018-07-11T18:27:27.000Z,30.2
2018-07-11T18:28:27.000Z,30.2
2018-07-11T18:30:27.000Z,30.2
2018-07-11T18:32:27.000Z,30.2
2018-07-11T18:33:27.000Z,30.1
2018-07-11T18:34:27.000Z,30.1
2018-07-11T18:36:27.000Z,30.1
2018-07-11T18:37:27.000Z,30.1
2018-07-11T18:39:27.000Z,30.1
2018-07-11T18:40:27.000Z,30.1
2018-07-11T18:42:27.000Z,30.1
2018-07-11T18:44:27.000Z,30
2018-07-11T18:45:27.000Z,30
2018-07-11T18:46:27.000Z,30
2018-07-11T18:48:27.000Z,30
2018-07-11T18:49:27.000Z,30.1
2018-07-11T18:51:27.000Z,30.1
2018-07-11T18:53:27.000Z,30
2018-07-11T18:54:27.000Z,30
2018-07-11T18:56:27.000Z,29.9
2018-07-11T18:57:27.000Z,30
2018-07-11T18:58:27.000Z,30
2018-07-11T19:00:27.000Z,30
2018-07-11T19:01:27.000Z,30.1
2018-07-11T19:02:27.000Z,30.1
2018-07-11T19:04:27.000Z,30.1
2018-07-11T19:06:27.000Z,30
2018-07-11T19:07:27.000Z,29.9
2018-07-11T19:09:27.000Z,29.9
2018-07-11T19:10:27.000Z,29.8
2018-07-11T19:12:27.000Z,29.9
2018-07-11T19:13:27.000Z,29.9
2018-07-11T19:14:27.000Z,29.9
2018-07-11T19:16:12.000Z,29.9
2018-07-11T19:17:27.000Z,29.9
2018-07-11T19:18:27.000Z,29.9
2018-07-11T19:20:27.000Z,29.9
2018-07-11T19:21:27.000Z,29.9
2018-07-11T19:22:27.000Z,30
2018-07-11T19:24:27.000Z,30
2018-07-11T19:25:27.000Z,30
2018-07-11T19:26:27.000Z,30.1
2018-07-11T19:28:27.000Z,30.1
2018-07-11T19:29:27.000Z,30.1
2018-07-11T19:31:27.000Z,30.1
2018-07-11T19:32:27.000Z,30.1
2018-07-11T19:34:27.000Z,30.1
2018-07-11T19:36:27.000Z,30
2018-07-11T19:37:27.000Z,30
2018-07-11T19:39:27.000Z,30
2018-07-11T19:41:27.000Z,30
2018-07-11T19:42:27.000Z,30
2018-07-11T19:44:27.000Z,30
2018-07-11T19:45:27.000Z,30
2018-07-11T19:46:27.000Z,30
2018-07-11T19:47:27.000Z,30
2018-07-11T19:48:27.000Z,30
2018-07-11T19:50:27.000Z,30.1
2018-07-11T19:52:27.000Z,30
2018-07-11T19:54:27.000Z,30
2018-07-11T19:56:27.000Z,29.9
2018-07-11T19:58:27.000Z,29.9
2018-07-11T19:59:27.000Z,29.8
2018-07-11T20:00:27.000Z,29.9
2018-07-11T20:02:27.000Z,29.9
2018-07-11T20:04:12.000Z,29.9
2018-07-11T20:05:27.000Z,29.8
2018-07-11T20:06:27.000Z,29.8
2018-07-11T20:07:27.000Z,29.9
2018-07-11T20:09:27.000Z,29.9
2018-07-11T20:10:27.000Z,29.9
2018-07-11T20:12:27.000Z,29.9
2018-07-11T20:14:27.000Z,29.9
2018-07-11T20:16:12.000Z,29.8
2018-07-11T20:17:27.000Z,29.8
2018-07-11T20:18:27.000Z,29.8
2018-07-11T20:20:27.000Z,29.9
2018-07-11T20:21:27.000Z,29.9
2018-07-11T20:23:27.000Z,29.9
2018-07-11T20:25:12.000Z,29.9
2018-07-11T20:26:27.000Z,29.8
2018-07-11T20:28:27.000Z,29.8
2018-07-11T20:29:27.000Z,29.7
2018-07-11T20:30:27.000Z,29.8
2018-07-11T20:32:12.000Z,29.9
2018-07-11T20:33:27.000Z,29.8
2018-07-11T20:34:27.000Z,29.8
2018-07-11T20:36:27.000Z,29.9